Cedar Rapids (CID/KCID)

Map

Destinations

Information

Location
Cedar Rapids, IA
Local Time
18:23 / 6:23 pm
GMT Time
00:23 / 12:23 am
Gates
Unassigned
No FAA reported delays
METAR KCID 222352Z 28011KT 10SM CLR 16/05 A2958 RMK AO2 SLP018 T01560050 10244 20156 53016
TAF KCID 222357Z 2300/2324 29010KT P6SM SKC FM230600 34008KT P6SM SKC FM231400 02011KT P6SM SCT020 BKN250 FM232000 07012KT P6SM VCSH BKN020 OVC100
  • No charts available